Kennedy, Canada
Current Conditions -  °F | °C
As of 6:00 AM on Monday 22 Dec 2014 (Local Time) from CYEN Reporting Station
Moderate Fog Moderate Fog  
Wind Chill: 22°   Ceiling: Unl
Heat Index: 28°   Visibility: 0.25mi
Dew Point: 28°   Wind: 6mph
Humidity: 100%   Direction: 50°NE
Pressure: 29.48"   Gusts: NA
Location:  50.02°N, 102.35°W
Report Text: CYEN 221200Z 05005KT 1/4SM FZFG VV000 M02/M02 A2948 RMK FG8 SNWCVR/ HARD PACK SLP012
Loading
Personal Weather Stations






























Interactive Weather Map New forecast layout! Learn more

10-Day Weather Forecast

Advertisements
Track Severe Weather on mobile